Terminal Aerodrome Forecast
Issued by NWS Des Moines, IA

Home | Current Version | Previous Version | Text Only | Print | Product List | Glossary On
Versions: 1 2 3 4 5 6 7 8 9 10 11 12 13 14 15 16 17 18
000
FTUS43 KDMX 240520
TAFALO
TAF
KALO 240520Z 2406/2506 35008KT P6SM VCSH SCT015 OVC035
     FM240800 36011KT P6SM VCSH SCT008 OVC018
     FM241600 01009KT P6SM OVC025
     FM242300 02007KT P6SM BKN040
     FM250400 01002KT P6SM FEW020=

USA.gov is the U.S. government's official web portal to all federal, state and local government web resources and services.